sensor_id;sensor_type;location;lat;lon;timestamp;P1;durP1;ratioP1;P2;durP2;ratioP2
27428;SDS011;14881;48.092;11.574;2023-05-07T00:01:56;7.57;;;6.72;;
27428;SDS011;14881;48.092;11.574;2023-05-07T00:04:22;7.78;;;6.97;;
27428;SDS011;14881;48.092;11.574;2023-05-07T00:06:50;7.90;;;7.10;;
27428;SDS011;14881;48.092;11.574;2023-05-07T00:09:16;10.93;;;7.00;;
27428;SDS011;14881;48.092;11.574;2023-05-07T00:11:43;10.68;;;7.43;;
27428;SDS011;14881;48.092;11.574;2023-05-07T00:14:09;11.35;;;7.75;;
27428;SDS011;14881;48.092;11.574;2023-05-07T00:16:35;11.75;;;6.47;;
27428;SDS011;14881;48.092;11.574;2023-05-07T00:19:03;9.82;;;6.13;;
27428;SDS011;14881;48.092;11.574;2023-05-07T00:21:29;11.02;;;6.95;;
27428;SDS011;14881;48.092;11.574;2023-05-07T00:23:57;8.25;;;6.82;;
27428;SDS011;14881;48.092;11.574;2023-05-07T00:26:23;10.63;;;6.70;;
27428;SDS011;14881;48.092;11.574;2023-05-07T00:28:49;9.57;;;7.10;;
27428;SDS011;14881;48.092;11.574;2023-05-07T00:31:15;9.57;;;7.07;;
27428;SDS011;14881;48.092;11.574;2023-05-07T00:33:42;7.22;;;6.53;;
27428;SDS011;14881;48.092;11.574;2023-05-07T00:36:08;10.90;;;7.35;;
27428;SDS011;14881;48.092;11.574;2023-05-07T00:38:35;7.55;;;6.70;;
27428;SDS011;14881;48.092;11.574;2023-05-07T00:41:02;7.57;;;6.72;;
27428;SDS011;14881;48.092;11.574;2023-05-07T00:43:28;7.18;;;6.47;;
27428;SDS011;14881;48.092;11.574;2023-05-07T00:45:54;10.40;;;6.53;;
27428;SDS011;14881;48.092;11.574;2023-05-07T00:48:21;9.18;;;6.65;;
27428;SDS011;14881;48.092;11.574;2023-05-07T00:50:49;10.00;;;6.88;;
27428;SDS011;14881;48.092;11.574;2023-05-07T00:53:16;9.18;;;7.38;;
27428;SDS011;14881;48.092;11.574;2023-05-07T00:55:42;8.30;;;6.43;;
27428;SDS011;14881;48.092;11.574;2023-05-07T00:58:09;8.95;;;6.43;;
27428;SDS011;14881;48.092;11.574;2023-05-07T01:00:36;7.53;;;6.82;;
27428;SDS011;14881;48.092;11.574;2023-05-07T01:03:02;12.20;;;9.05;;
27428;SDS011;14881;48.092;11.574;2023-05-07T01:05:30;10.45;;;8.32;;
27428;SDS011;14881;48.092;11.574;2023-05-07T01:07:56;10.85;;;7.82;;
27428;SDS011;14881;48.092;11.574;2023-05-07T01:10:24;12.38;;;8.15;;
27428;SDS011;14881;48.092;11.574;2023-05-07T01:12:51;8.77;;;7.93;;
27428;SDS011;14881;48.092;11.574;2023-05-07T01:15:18;8.40;;;7.60;;
27428;SDS011;14881;48.092;11.574;2023-05-07T01:17:45;8.50;;;7.00;;
27428;SDS011;14881;48.092;11.574;2023-05-07T01:20:12;8.57;;;7.35;;
27428;SDS011;14881;48.092;11.574;2023-05-07T01:22:40;8.15;;;7.40;;
27428;SDS011;14881;48.092;11.574;2023-05-07T01:25:09;7.78;;;6.75;;
27428;SDS011;14881;48.092;11.574;2023-05-07T01:27:36;7.97;;;7.28;;
27428;SDS011;14881;48.092;11.574;2023-05-07T01:30:06;8.40;;;7.55;;
27428;SDS011;14881;48.092;11.574;2023-05-07T01:32:45;9.43;;;7.28;;
27428;SDS011;14881;48.092;11.574;2023-05-07T01:35:18;8.43;;;7.63;;
27428;SDS011;14881;48.092;11.574;2023-05-07T01:37:46;11.00;;;7.13;;
27428;SDS011;14881;48.092;11.574;2023-05-07T01:40:13;10.90;;;7.65;;
27428;SDS011;14881;48.092;11.574;2023-05-07T01:42:40;10.27;;;7.60;;
27428;SDS011;14881;48.092;11.574;2023-05-07T01:45:08;10.20;;;7.93;;
27428;SDS011;14881;48.092;11.574;2023-05-07T01:47:36;11.00;;;7.72;;
27428;SDS011;14881;48.092;11.574;2023-05-07T01:50:03;8.80;;;7.25;;
27428;SDS011;14881;48.092;11.574;2023-05-07T01:52:31;11.48;;;8.20;;
27428;SDS011;14881;48.092;11.574;2023-05-07T01:54:58;10.02;;;7.13;;
27428;SDS011;14881;48.092;11.574;2023-05-07T01:57:24;10.43;;;7.57;;
27428;SDS011;14881;48.092;11.574;2023-05-07T01:59:50;8.68;;;7.18;;
27428;SDS011;14881;48.092;11.574;2023-05-07T02:02:17;9.57;;;7.65;;
27428;SDS011;14881;48.092;11.574;2023-05-07T02:04:43;7.80;;;7.10;;
27428;SDS011;14881;48.092;11.574;2023-05-07T02:07:09;10.95;;;7.43;;
27428;SDS011;14881;48.092;11.574;2023-05-07T02:09:36;8.70;;;6.82;;
27428;SDS011;14881;48.092;11.574;2023-05-07T02:12:03;8.30;;;7.20;;
27428;SDS011;14881;48.092;11.574;2023-05-07T02:14:30;8.10;;;7.28;;
27428;SDS011;14881;48.092;11.574;2023-05-07T02:16:56;7.82;;;7.13;;
27428;SDS011;14881;48.092;11.574;2023-05-07T02:19:23;11.75;;;7.45;;
27428;SDS011;14881;48.092;11.574;2023-05-07T02:21:49;8.15;;;7.35;;
27428;SDS011;14881;48.092;11.574;2023-05-07T02:24:16;12.00;;;7.18;;
27428;SDS011;14881;48.092;11.574;2023-05-07T02:26:43;8.38;;;7.50;;
27428;SDS011;14881;48.092;11.574;2023-05-07T02:29:09;9.38;;;7.25;;
27428;SDS011;14881;48.092;11.574;2023-05-07T02:31:36;10.50;;;7.10;;
27428;SDS011;14881;48.092;11.574;2023-05-07T02:34:02;11.90;;;7.25;;
27428;SDS011;14881;48.092;11.574;2023-05-07T02:36:29;8.05;;;7.30;;
27428;SDS011;14881;48.092;11.574;2023-05-07T02:38:55;9.10;;;8.20;;
27428;SDS011;14881;48.092;11.574;2023-05-07T02:41:22;10.55;;;7.70;;
27428;SDS011;14881;48.092;11.574;2023-05-07T02:43:48;7.03;;;6.43;;
27428;SDS011;14881;48.092;11.574;2023-05-07T02:46:15;8.50;;;7.70;;
27428;SDS011;14881;48.092;11.574;2023-05-07T02:48:41;11.50;;;6.97;;
27428;SDS011;14881;48.092;11.574;2023-05-07T02:51:08;10.07;;;7.18;;
27428;SDS011;14881;48.092;11.574;2023-05-07T02:53:34;9.43;;;6.68;;
27428;SDS011;14881;48.092;11.574;2023-05-07T02:56:01;10.35;;;7.95;;
27428;SDS011;14881;48.092;11.574;2023-05-07T02:58:27;8.85;;;7.38;;
27428;SDS011;14881;48.092;11.574;2023-05-07T03:00:54;8.50;;;6.88;;
27428;SDS011;14881;48.092;11.574;2023-05-07T03:03:21;8.30;;;7.15;;
27428;SDS011;14881;48.092;11.574;2023-05-07T03:05:47;9.27;;;6.47;;
27428;SDS011;14881;48.092;11.574;2023-05-07T03:08:16;7.93;;;6.68;;
27428;SDS011;14881;48.092;11.574;2023-05-07T03:10:42;9.23;;;7.82;;
27428;SDS011;14881;48.092;11.574;2023-05-07T03:13:09;9.75;;;7.03;;
27428;SDS011;14881;48.092;11.574;2023-05-07T03:15:35;10.35;;;7.80;;
27428;SDS011;14881;48.092;11.574;2023-05-07T03:18:01;8.23;;;7.07;;
27428;SDS011;14881;48.092;11.574;2023-05-07T03:20:29;8.05;;;6.70;;
27428;SDS011;14881;48.092;11.574;2023-05-07T03:22:55;9.95;;;7.68;;
27428;SDS011;14881;48.092;11.574;2023-05-07T03:25:22;7.85;;;7.10;;
27428;SDS011;14881;48.092;11.574;2023-05-07T03:27:48;10.57;;;7.43;;
27428;SDS011;14881;48.092;11.574;2023-05-07T03:30:14;7.88;;;6.95;;
27428;SDS011;14881;48.092;11.574;2023-05-07T03:32:41;7.90;;;7.10;;
27428;SDS011;14881;48.092;11.574;2023-05-07T03:35:07;8.73;;;7.80;;
27428;SDS011;14881;48.092;11.574;2023-05-07T03:37:34;10.25;;;7.60;;
27428;SDS011;14881;48.092;11.574;2023-05-07T03:40:03;10.55;;;7.22;;
27428;SDS011;14881;48.092;11.574;2023-05-07T03:42:30;7.55;;;6.85;;
27428;SDS011;14881;48.092;11.574;2023-05-07T03:44:56;14.70;;;7.32;;
27428;SDS011;14881;48.092;11.574;2023-05-07T03:47:22;9.52;;;7.45;;
27428;SDS011;14881;48.092;11.574;2023-05-07T03:49:49;8.82;;;7.05;;
27428;SDS011;14881;48.092;11.574;2023-05-07T03:52:18;7.63;;;6.82;;
27428;SDS011;14881;48.092;11.574;2023-05-07T03:54:49;8.57;;;7.57;;
27428;SDS011;14881;48.092;11.574;2023-05-07T03:57:16;9.27;;;7.00;;
27428;SDS011;14881;48.092;11.574;2023-05-07T03:59:42;8.38;;;7.13;;
27428;SDS011;14881;48.092;11.574;2023-05-07T04:02:08;7.40;;;6.70;;
27428;SDS011;14881;48.092;11.574;2023-05-07T04:04:35;8.77;;;6.72;;
27428;SDS011;14881;48.092;11.574;2023-05-07T04:07:01;10.27;;;7.20;;
27428;SDS011;14881;48.092;11.574;2023-05-07T04:09:28;8.40;;;7.50;;
27428;SDS011;14881;48.092;11.574;2023-05-07T04:11:55;10.75;;;7.07;;
27428;SDS011;14881;48.092;11.574;2023-05-07T04:14:21;8.18;;;7.47;;
27428;SDS011;14881;48.092;11.574;2023-05-07T04:16:47;7.88;;;7.07;;
27428;SDS011;14881;48.092;11.574;2023-05-07T04:19:14;7.50;;;6.80;;
27428;SDS011;14881;48.092;11.574;2023-05-07T04:21:40;7.90;;;6.65;;
27428;SDS011;14881;48.092;11.574;2023-05-07T04:24:07;9.02;;;7.28;;
27428;SDS011;14881;48.092;11.574;2023-05-07T04:26:36;7.65;;;6.65;;
27428;SDS011;14881;48.092;11.574;2023-05-07T04:29:06;9.07;;;7.03;;
27428;SDS011;14881;48.092;11.574;2023-05-07T04:31:32;9.43;;;7.25;;
27428;SDS011;14881;48.092;11.574;2023-05-07T04:33:59;7.63;;;6.88;;
27428;SDS011;14881;48.092;11.574;2023-05-07T04:36:26;8.75;;;7.20;;
27428;SDS011;14881;48.092;11.574;2023-05-07T04:38:53;10.65;;;7.80;;
27428;SDS011;14881;48.092;11.574;2023-05-07T04:41:19;9.32;;;7.55;;
27428;SDS011;14881;48.092;11.574;2023-05-07T04:43:46;9.18;;;7.55;;
27428;SDS011;14881;48.092;11.574;2023-05-07T04:46:13;10.52;;;7.38;;
27428;SDS011;14881;48.092;11.574;2023-05-07T04:48:39;9.75;;;6.93;;
27428;SDS011;14881;48.092;11.574;2023-05-07T04:51:05;8.55;;;6.82;;
27428;SDS011;14881;48.092;11.574;2023-05-07T04:53:32;13.05;;;7.30;;
27428;SDS011;14881;48.092;11.574;2023-05-07T04:55:58;7.32;;;6.70;;
27428;SDS011;14881;48.092;11.574;2023-05-07T04:58:25;10.07;;;7.28;;
27428;SDS011;14881;48.092;11.574;2023-05-07T05:00:51;8.63;;;6.80;;
27428;SDS011;14881;48.092;11.574;2023-05-07T05:03:18;7.05;;;6.05;;
27428;SDS011;14881;48.092;11.574;2023-05-07T05:05:45;7.35;;;6.55;;
27428;SDS011;14881;48.092;11.574;2023-05-07T05:08:11;10.05;;;6.55;;
27428;SDS011;14881;48.092;11.574;2023-05-07T05:10:37;7.53;;;6.82;;
27428;SDS011;14881;48.092;11.574;2023-05-07T05:13:04;8.88;;;6.97;;
27428;SDS011;14881;48.092;11.574;2023-05-07T05:15:30;12.25;;;6.82;;
27428;SDS011;14881;48.092;11.574;2023-05-07T05:17:59;7.75;;;6.63;;
27428;SDS011;14881;48.092;11.574;2023-05-07T05:20:26;7.00;;;5.85;;
27428;SDS011;14881;48.092;11.574;2023-05-07T05:22:52;8.63;;;5.78;;
27428;SDS011;14881;48.092;11.574;2023-05-07T05:25:18;10.07;;;6.80;;
27428;SDS011;14881;48.092;11.574;2023-05-07T05:27:45;12.50;;;6.43;;
27428;SDS011;14881;48.092;11.574;2023-05-07T05:30:11;6.88;;;5.97;;
27428;SDS011;14881;48.092;11.574;2023-05-07T05:32:38;10.00;;;6.25;;
27428;SDS011;14881;48.092;11.574;2023-05-07T05:35:05;6.65;;;6.03;;
27428;SDS011;14881;48.092;11.574;2023-05-07T05:37:32;7.00;;;6.00;;
27428;SDS011;14881;48.092;11.574;2023-05-07T05:40:02;9.35;;;6.50;;
27428;SDS011;14881;48.092;11.574;2023-05-07T05:42:29;7.63;;;6.30;;
27428;SDS011;14881;48.092;11.574;2023-05-07T05:44:55;8.77;;;6.82;;
27428;SDS011;14881;48.092;11.574;2023-05-07T05:47:22;7.50;;;6.32;;
27428;SDS011;14881;48.092;11.574;2023-05-07T05:49:48;8.68;;;7.18;;
27428;SDS011;14881;48.092;11.574;2023-05-07T05:52:15;8.60;;;7.22;;
27428;SDS011;14881;48.092;11.574;2023-05-07T05:54:42;7.65;;;6.95;;
27428;SDS011;14881;48.092;11.574;2023-05-07T05:57:09;9.07;;;8.18;;
27428;SDS011;14881;48.092;11.574;2023-05-07T05:59:35;11.80;;;8.65;;
27428;SDS011;14881;48.092;11.574;2023-05-07T06:02:01;8.68;;;7.80;;
27428;SDS011;14881;48.092;11.574;2023-05-07T06:04:28;9.68;;;8.57;;
27428;SDS011;14881;48.092;11.574;2023-05-07T06:06:54;10.63;;;9.63;;
27428;SDS011;14881;48.092;11.574;2023-05-07T06:09:22;8.95;;;8.05;;
27428;SDS011;14881;48.092;11.574;2023-05-07T06:11:49;9.82;;;8.82;;
27428;SDS011;14881;48.092;11.574;2023-05-07T06:14:15;10.35;;;9.20;;
27428;SDS011;14881;48.092;11.574;2023-05-07T06:16:41;11.57;;;9.10;;
27428;SDS011;14881;48.092;11.574;2023-05-07T06:19:08;9.98;;;8.35;;
27428;SDS011;14881;48.092;11.574;2023-05-07T06:21:34;9.25;;;8.27;;
27428;SDS011;14881;48.092;11.574;2023-05-07T06:24:01;8.25;;;7.45;;
27428;SDS011;14881;48.092;11.574;2023-05-07T06:26:28;8.10;;;6.90;;
27428;SDS011;14881;48.092;11.574;2023-05-07T06:28:55;8.32;;;6.72;;
27428;SDS011;14881;48.092;11.574;2023-05-07T06:31:21;8.85;;;6.07;;
27428;SDS011;14881;48.092;11.574;2023-05-07T06:33:48;6.57;;;5.85;;
27428;SDS011;14881;48.092;11.574;2023-05-07T06:36:14;9.98;;;5.97;;
27428;SDS011;14881;48.092;11.574;2023-05-07T06:38:41;6.00;;;5.38;;
27428;SDS011;14881;48.092;11.574;2023-05-07T06:41:07;5.75;;;5.15;;
27428;SDS011;14881;48.092;11.574;2023-05-07T06:43:33;7.10;;;5.68;;
27428;SDS011;14881;48.092;11.574;2023-05-07T06:46:00;5.88;;;5.32;;
27428;SDS011;14881;48.092;11.574;2023-05-07T06:48:27;5.85;;;5.22;;
27428;SDS011;14881;48.092;11.574;2023-05-07T06:50:53;8.25;;;5.32;;
27428;SDS011;14881;48.092;11.574;2023-05-07T06:53:21;7.03;;;5.35;;
27428;SDS011;14881;48.092;11.574;2023-05-07T06:55:47;7.38;;;4.90;;
27428;SDS011;14881;48.092;11.574;2023-05-07T06:58:13;5.40;;;4.93;;
27428;SDS011;14881;48.092;11.574;2023-05-07T07:00:40;9.10;;;5.10;;
27428;SDS011;14881;48.092;11.574;2023-05-07T07:03:10;8.05;;;4.63;;
27428;SDS011;14881;48.092;11.574;2023-05-07T07:05:36;5.72;;;5.03;;
27428;SDS011;14881;48.092;11.574;2023-05-07T07:08:03;5.55;;;5.03;;
27428;SDS011;14881;48.092;11.574;2023-05-07T07:10:29;7.70;;;6.10;;
27428;SDS011;14881;48.092;11.574;2023-05-07T07:12:55;5.72;;;5.05;;
27428;SDS011;14881;48.092;11.574;2023-05-07T07:15:22;7.22;;;4.80;;
27428;SDS011;14881;48.092;11.574;2023-05-07T07:17:50;4.78;;;4.35;;
27428;SDS011;14881;48.092;11.574;2023-05-07T07:20:17;7.82;;;4.60;;
27428;SDS011;14881;48.092;11.574;2023-05-07T07:22:44;6.20;;;4.15;;
27428;SDS011;14881;48.092;11.574;2023-05-07T07:25:10;6.00;;;4.38;;
27428;SDS011;14881;48.092;11.574;2023-05-07T07:27:37;4.00;;;3.60;;
27428;SDS011;14881;48.092;11.574;2023-05-07T07:30:05;8.10;;;5.97;;
27428;SDS011;14881;48.092;11.574;2023-05-07T07:32:32;6.97;;;4.78;;
27428;SDS011;14881;48.092;11.574;2023-05-07T07:34:59;6.97;;;3.90;;
27428;SDS011;14881;48.092;11.574;2023-05-07T07:37:26;4.90;;;4.05;;
27428;SDS011;14881;48.092;11.574;2023-05-07T07:39:52;8.32;;;4.47;;
27428;SDS011;14881;48.092;11.574;2023-05-07T07:42:19;33.78;;;16.58;;
27428;SDS011;14881;48.092;11.574;2023-05-07T07:44:45;11.35;;;7.57;;
27428;SDS011;14881;48.092;11.574;2023-05-07T07:47:14;9.82;;;6.50;;
27428;SDS011;14881;48.092;11.574;2023-05-07T07:49:40;4.65;;;4.20;;
27428;SDS011;14881;48.092;11.574;2023-05-07T07:52:06;5.95;;;3.70;;
27428;SDS011;14881;48.092;11.574;2023-05-07T07:54:33;7.07;;;4.13;;
27428;SDS011;14881;48.092;11.574;2023-05-07T07:57:00;5.78;;;4.45;;
27428;SDS011;14881;48.092;11.574;2023-05-07T07:59:26;9.55;;;5.75;;
27428;SDS011;14881;48.092;11.574;2023-05-07T08:01:53;8.07;;;4.63;;
27428;SDS011;14881;48.092;11.574;2023-05-07T08:04:22;8.60;;;6.53;;
27428;SDS011;14881;48.092;11.574;2023-05-07T08:06:48;5.47;;;3.83;;
27428;SDS011;14881;48.092;11.574;2023-05-07T08:09:15;46.90;;;21.90;;
27428;SDS011;14881;48.092;11.574;2023-05-07T08:11:42;4.28;;;3.88;;
27428;SDS011;14881;48.092;11.574;2023-05-07T08:14:08;4.15;;;3.75;;
27428;SDS011;14881;48.092;11.574;2023-05-07T08:16:34;14.50;;;8.20;;
27428;SDS011;14881;48.092;11.574;2023-05-07T08:19:01;5.95;;;3.60;;
27428;SDS011;14881;48.092;11.574;2023-05-07T08:21:27;10.25;;;5.18;;
27428;SDS011;14881;48.092;11.574;2023-05-07T08:23:54;14.35;;;7.47;;
27428;SDS011;14881;48.092;11.574;2023-05-07T08:26:20;4.18;;;3.03;;
27428;SDS011;14881;48.092;11.574;2023-05-07T08:28:47;6.97;;;3.92;;
27428;SDS011;14881;48.092;11.574;2023-05-07T08:31:13;6.07;;;3.65;;
27428;SDS011;14881;48.092;11.574;2023-05-07T08:33:40;4.35;;;3.42;;
27428;SDS011;14881;48.092;11.574;2023-05-07T08:36:06;13.60;;;6.07;;
27428;SDS011;14881;48.092;11.574;2023-05-07T08:38:33;3.60;;;3.22;;
27428;SDS011;14881;48.092;11.574;2023-05-07T08:40:59;17.52;;;9.02;;
27428;SDS011;14881;48.092;11.574;2023-05-07T08:43:26;6.55;;;4.10;;
27428;SDS011;14881;48.092;11.574;2023-05-07T08:45:53;5.03;;;2.88;;
27428;SDS011;14881;48.092;11.574;2023-05-07T08:48:21;5.22;;;3.20;;
27428;SDS011;14881;48.092;11.574;2023-05-07T08:50:51;6.55;;;2.72;;
27428;SDS011;14881;48.092;11.574;2023-05-07T08:53:17;2.83;;;2.50;;
27428;SDS011;14881;48.092;11.574;2023-05-07T08:55:45;3.95;;;3.63;;
27428;SDS011;14881;48.092;11.574;2023-05-07T08:58:13;3.78;;;3.47;;
27428;SDS011;14881;48.092;11.574;2023-05-07T09:00:39;5.65;;;3.60;;
27428;SDS011;14881;48.092;11.574;2023-05-07T09:03:08;4.20;;;3.15;;
27428;SDS011;14881;48.092;11.574;2023-05-07T09:05:37;5.20;;;3.08;;
27428;SDS011;14881;48.092;11.574;2023-05-07T09:08:05;6.18;;;3.97;;
27428;SDS011;14881;48.092;11.574;2023-05-07T09:10:33;5.32;;;3.08;;
27428;SDS011;14881;48.092;11.574;2023-05-07T09:12:59;6.28;;;3.42;;
27428;SDS011;14881;48.092;11.574;2023-05-07T09:15:26;4.38;;;3.40;;
27428;SDS011;14881;48.092;11.574;2023-05-07T09:17:53;6.50;;;3.05;;
27428;SDS011;14881;48.092;11.574;2023-05-07T09:20:20;6.75;;;3.22;;
27428;SDS011;14881;48.092;11.574;2023-05-07T09:22:47;4.07;;;2.55;;
27428;SDS011;14881;48.092;11.574;2023-05-07T09:25:17;4.25;;;3.10;;
27428;SDS011;14881;48.092;11.574;2023-05-07T09:27:54;4.53;;;2.90;;
27428;SDS011;14881;48.092;11.574;2023-05-07T09:30:20;3.50;;;2.70;;
27428;SDS011;14881;48.092;11.574;2023-05-07T09:32:47;4.22;;;2.88;;
27428;SDS011;14881;48.092;11.574;2023-05-07T09:35:17;4.28;;;2.60;;
27428;SDS011;14881;48.092;11.574;2023-05-07T09:37:44;2.65;;;2.45;;
27428;SDS011;14881;48.092;11.574;2023-05-07T09:40:19;2.97;;;2.40;;
27428;SDS011;14881;48.092;11.574;2023-05-07T09:42:47;3.10;;;2.00;;
27428;SDS011;14881;48.092;11.574;2023-05-07T09:45:15;2.45;;;2.15;;
27428;SDS011;14881;48.092;11.574;2023-05-07T09:47:41;4.72;;;2.50;;
27428;SDS011;14881;48.092;11.574;2023-05-07T09:50:10;2.47;;;2.22;;
27428;SDS011;14881;48.092;11.574;2023-05-07T09:52:38;3.15;;;2.30;;
27428;SDS011;14881;48.092;11.574;2023-05-07T09:55:07;2.95;;;2.63;;
27428;SDS011;14881;48.092;11.574;2023-05-07T09:57:34;10.15;;;2.78;;
27428;SDS011;14881;48.092;11.574;2023-05-07T10:00:02;4.90;;;2.33;;
27428;SDS011;14881;48.092;11.574;2023-05-07T10:02:30;3.05;;;2.30;;
27428;SDS011;14881;48.092;11.574;2023-05-07T10:05:01;3.83;;;2.35;;
27428;SDS011;14881;48.092;11.574;2023-05-07T10:07:28;5.00;;;2.30;;
27428;SDS011;14881;48.092;11.574;2023-05-07T10:09:55;4.25;;;2.20;;
27428;SDS011;14881;48.092;11.574;2023-05-07T10:12:24;3.28;;;2.10;;
27428;SDS011;14881;48.092;11.574;2023-05-07T10:14:50;5.85;;;2.45;;
27428;SDS011;14881;48.092;11.574;2023-05-07T10:17:18;4.15;;;2.63;;
27428;SDS011;14881;48.092;11.574;2023-05-07T10:19:46;3.85;;;2.22;;
27428;SDS011;14881;48.092;11.574;2023-05-07T10:22:12;2.35;;;2.15;;
27428;SDS011;14881;48.092;11.574;2023-05-07T10:24:41;3.50;;;2.38;;
27428;SDS011;14881;48.092;11.574;2023-05-07T10:27:10;1.98;;;1.80;;
27428;SDS011;14881;48.092;11.574;2023-05-07T10:29:42;2.90;;;1.70;;
27428;SDS011;14881;48.092;11.574;2023-05-07T10:32:33;4.32;;;2.30;;
27428;SDS011;14881;48.092;11.574;2023-05-07T10:35:06;2.42;;;1.95;;
27428;SDS011;14881;48.092;11.574;2023-05-07T10:37:41;3.80;;;2.17;;
27428;SDS011;14881;48.092;11.574;2023-05-07T10:40:11;4.07;;;2.40;;
27428;SDS011;14881;48.092;11.574;2023-05-07T10:42:38;5.15;;;1.80;;
27428;SDS011;14881;48.092;11.574;2023-05-07T10:45:17;2.00;;;1.80;;
27428;SDS011;14881;48.092;11.574;2023-05-07T10:53:44;4.18;;;2.50;;
27428;SDS011;14881;48.092;11.574;2023-05-07T10:56:26;3.55;;;2.30;;
27428;SDS011;14881;48.092;11.574;2023-05-07T10:58:53;4.93;;;2.00;;
27428;SDS011;14881;48.092;11.574;2023-05-07T11:04:18;3.42;;;1.90;;
27428;SDS011;14881;48.092;11.574;2023-05-07T11:07:14;3.55;;;2.00;;
27428;SDS011;14881;48.092;11.574;2023-05-07T11:09:56;2.55;;;2.22;;
27428;SDS011;14881;48.092;11.574;2023-05-07T11:12:48;3.53;;;1.90;;
27428;SDS011;14881;48.092;11.574;2023-05-07T11:18:18;4.07;;;2.20;;
27428;SDS011;14881;48.092;11.574;2023-05-07T11:20:49;4.15;;;2.10;;
27428;SDS011;14881;48.092;11.574;2023-05-07T11:26:41;5.25;;;1.80;;
27428;SDS011;14881;48.092;11.574;2023-05-07T11:29:10;4.30;;;2.28;;
27428;SDS011;14881;48.092;11.574;2023-05-07T11:31:37;4.18;;;2.63;;
27428;SDS011;14881;48.092;11.574;2023-05-07T11:34:04;3.35;;;2.50;;
27428;SDS011;14881;48.092;11.574;2023-05-07T11:36:31;10.02;;;2.88;;
27428;SDS011;14881;48.092;11.574;2023-05-07T11:39:00;4.75;;;2.53;;
27428;SDS011;14881;48.092;11.574;2023-05-07T11:41:33;2.50;;;2.25;;
27428;SDS011;14881;48.092;11.574;2023-05-07T11:43:59;4.10;;;3.17;;
27428;SDS011;14881;48.092;11.574;2023-05-07T11:46:26;4.63;;;3.28;;
27428;SDS011;14881;48.092;11.574;2023-05-07T11:48:54;5.43;;;3.05;;
27428;SDS011;14881;48.092;11.574;2023-05-07T11:51:22;7.43;;;3.97;;
27428;SDS011;14881;48.092;11.574;2023-05-07T11:53:49;5.45;;;3.63;;
27428;SDS011;14881;48.092;11.574;2023-05-07T11:56:16;5.63;;;3.83;;
27428;SDS011;14881;48.092;11.574;2023-05-07T11:58:44;4.32;;;3.70;;
27428;SDS011;14881;48.092;11.574;2023-05-07T12:01:12;6.35;;;4.05;;
27428;SDS011;14881;48.092;11.574;2023-05-07T12:03:39;4.72;;;3.30;;
27428;SDS011;14881;48.092;11.574;2023-05-07T12:06:08;4.43;;;3.20;;
27428;SDS011;14881;48.092;11.574;2023-05-07T12:08:36;6.40;;;3.42;;
27428;SDS011;14881;48.092;11.574;2023-05-07T12:11:03;5.90;;;4.07;;
27428;SDS011;14881;48.092;11.574;2023-05-07T12:13:33;4.15;;;3.20;;
27428;SDS011;14881;48.092;11.574;2023-05-07T12:16:03;6.28;;;3.28;;
27428;SDS011;14881;48.092;11.574;2023-05-07T12:18:31;4.07;;;3.40;;
27428;SDS011;14881;48.092;11.574;2023-05-07T12:20:58;6.45;;;3.33;;
27428;SDS011;14881;48.092;11.574;2023-05-07T12:23:25;5.88;;;3.63;;
27428;SDS011;14881;48.092;11.574;2023-05-07T12:25:52;4.55;;;3.08;;
27428;SDS011;14881;48.092;11.574;2023-05-07T12:28:19;4.70;;;2.83;;
27428;SDS011;14881;48.092;11.574;2023-05-07T12:30:46;3.50;;;2.75;;
27428;SDS011;14881;48.092;11.574;2023-05-07T12:33:16;5.13;;;2.95;;
27428;SDS011;14881;48.092;11.574;2023-05-07T12:35:43;5.55;;;3.30;;
27428;SDS011;14881;48.092;11.574;2023-05-07T12:38:10;4.63;;;2.45;;
27428;SDS011;14881;48.092;11.574;2023-05-07T12:40:38;7.88;;;3.20;;
27428;SDS011;14881;48.092;11.574;2023-05-07T12:43:06;3.25;;;2.97;;
27428;SDS011;14881;48.092;11.574;2023-05-07T12:45:36;5.18;;;3.25;;
27428;SDS011;14881;48.092;11.574;2023-05-07T12:48:04;3.85;;;2.50;;
27428;SDS011;14881;48.092;11.574;2023-05-07T12:50:31;4.68;;;3.05;;
27428;SDS011;14881;48.092;11.574;2023-05-07T12:53:00;5.38;;;2.92;;
27428;SDS011;14881;48.092;11.574;2023-05-07T12:55:31;4.55;;;3.20;;
27428;SDS011;14881;48.092;11.574;2023-05-07T12:58:00;4.68;;;3.00;;
27428;SDS011;14881;48.092;11.574;2023-05-07T13:00:34;5.47;;;2.90;;
27428;SDS011;14881;48.092;11.574;2023-05-07T13:03:01;3.70;;;2.90;;
27428;SDS011;14881;48.092;11.574;2023-05-07T13:05:28;3.05;;;2.65;;
27428;SDS011;14881;48.092;11.574;2023-05-07T13:07:55;4.68;;;2.72;;
27428;SDS011;14881;48.092;11.574;2023-05-07T13:10:21;3.50;;;2.63;;
27428;SDS011;14881;48.092;11.574;2023-05-07T13:12:48;4.32;;;2.95;;
27428;SDS011;14881;48.092;11.574;2023-05-07T13:15:15;8.30;;;3.10;;
27428;SDS011;14881;48.092;11.574;2023-05-07T13:17:42;2.80;;;2.28;;
27428;SDS011;14881;48.092;11.574;2023-05-07T13:20:09;3.15;;;2.42;;
27428;SDS011;14881;48.092;11.574;2023-05-07T13:22:36;3.67;;;2.28;;
27428;SDS011;14881;48.092;11.574;2023-05-07T13:25:03;3.33;;;2.67;;
27428;SDS011;14881;48.092;11.574;2023-05-07T13:27:30;3.97;;;2.53;;
27428;SDS011;14881;48.092;11.574;2023-05-07T13:29:56;2.80;;;2.60;;
27428;SDS011;14881;48.092;11.574;2023-05-07T13:32:23;4.65;;;2.50;;
27428;SDS011;14881;48.092;11.574;2023-05-07T13:34:50;2.50;;;2.30;;
27428;SDS011;14881;48.092;11.574;2023-05-07T13:37:16;3.83;;;2.50;;
27428;SDS011;14881;48.092;11.574;2023-05-07T13:39:42;3.78;;;2.17;;
27428;SDS011;14881;48.092;11.574;2023-05-07T13:42:12;2.88;;;2.35;;
27428;SDS011;14881;48.092;11.574;2023-05-07T13:44:38;2.58;;;2.35;;
27428;SDS011;14881;48.092;11.574;2023-05-07T13:47:13;2.88;;;2.20;;
27428;SDS011;14881;48.092;11.574;2023-05-07T13:49:39;2.92;;;2.15;;
27428;SDS011;14881;48.092;11.574;2023-05-07T13:52:06;3.67;;;2.47;;
27428;SDS011;14881;48.092;11.574;2023-05-07T13:54:33;7.45;;;4.93;;
27428;SDS011;14881;48.092;11.574;2023-05-07T13:56:59;18.00;;;8.27;;
27428;SDS011;14881;48.092;11.574;2023-05-07T13:59:25;15.52;;;7.20;;
27428;SDS011;14881;48.092;11.574;2023-05-07T14:01:52;4.15;;;2.75;;
27428;SDS011;14881;48.092;11.574;2023-05-07T14:04:18;3.38;;;2.38;;
27428;SDS011;14881;48.092;11.574;2023-05-07T14:06:44;4.85;;;2.60;;
27428;SDS011;14881;48.092;11.574;2023-05-07T14:09:11;2.67;;;2.47;;
27428;SDS011;14881;48.092;11.574;2023-05-07T14:11:41;3.00;;;2.70;;
27428;SDS011;14881;48.092;11.574;2023-05-07T14:14:08;4.43;;;2.70;;
27428;SDS011;14881;48.092;11.574;2023-05-07T14:16:36;2.72;;;2.28;;
27428;SDS011;14881;48.092;11.574;2023-05-07T14:19:02;3.70;;;2.40;;
27428;SDS011;14881;48.092;11.574;2023-05-07T14:21:31;3.28;;;2.22;;
27428;SDS011;14881;48.092;11.574;2023-05-07T14:24:00;4.50;;;2.55;;
27428;SDS011;14881;48.092;11.574;2023-05-07T14:26:33;5.82;;;2.92;;
27428;SDS011;14881;48.092;11.574;2023-05-07T14:28:59;3.10;;;2.38;;
27428;SDS011;14881;48.092;11.574;2023-05-07T14:31:25;4.90;;;2.63;;
27428;SDS011;14881;48.092;11.574;2023-05-07T14:33:52;2.40;;;2.20;;
27428;SDS011;14881;48.092;11.574;2023-05-07T14:36:19;3.90;;;2.50;;
27428;SDS011;14881;48.092;11.574;2023-05-07T14:38:46;2.78;;;2.38;;
27428;SDS011;14881;48.092;11.574;2023-05-07T14:41:13;3.28;;;2.85;;
27428;SDS011;14881;48.092;11.574;2023-05-07T14:43:40;3.10;;;2.45;;
27428;SDS011;14881;48.092;11.574;2023-05-07T14:46:06;5.18;;;2.95;;
27428;SDS011;14881;48.092;11.574;2023-05-07T14:48:33;5.43;;;2.42;;
27428;SDS011;14881;48.092;11.574;2023-05-07T14:50:59;4.63;;;2.40;;